Springer, OK (73458)

5:24 AM CDT on June 02, 2015 (GMT -0500)
Carter County Dist 1 | | Change Station
CLOSE
Current Station
Personal Weather Station
Location: Springer, OK
Elevation: 895 ft
Nearby Weather Stations

Elev 895 ft 34.30 °N, 97.14 °W | Updated 4 minutes ago

Mostly Cloudy
Mostly Cloudy
66.0 °F
Feels Like 66.0 °F
N
0.0
Wind Variable Wind from ESE
Gusts 0.0 mph

Today
High -- | Low -- °F
--% Chance of Precip.
Yesterday
High -- | Low -- °F
Precip. -- in
6:17 AM 8:35 PM
Full, 100% visible
Pressure 30.02 in
Visibility 0.8 miles
Clouds
Dew Point 63 °F
Humidity 89%
Rainfall 0.00 in
Snow Depth Not available.
UV Not available.
Pollen 6.70 out of 12
Air Quality Not available.
Flu Activity Sporadic
METAR KADM 021015Z AUTO 00000KT 3/4SM BR VV005 17/17 A3002 RMK AO2 T01660166

More Conditions Fewer Conditions

Pressure 30.02 in
Visibility 0.8 miles
Clouds
Dew Point 63 °F
Humidity 89%
Rainfall 0.00 in
Snow Depth Not available.
UV Not available.
Pollen 6.70 out of 12
Air Quality Not available.
Flu Activity Sporadic
METAR KADM 021015Z AUTO 00000KT 3/4SM BR VV005 17/17 A3002 RMK AO2 T01660166

More Conditions Fewer Conditions

10-Day Weather Forecast

Almanac

Astronomy

Jun. 02, 2015 Rise Set
Actual Time
Civil Twilight
Nautical Twilight
Astronomical Twilight
Moon
Length of Visible Light
Length of Day
Tomorrow will be .
, % of the Moon is Illuminated

Today's Extremes

State Highs State Lows

Community

WunderPhotos

Upload Photos

1,825,902 photos uploaded!

WunderBlogs® & News

Nearby

Air Quality

  Air Quality AQ Index Pollutant
Not available.

Snow Depth

Station Depth Elevation

Earthquake Activity

City Distance Mag. Time & Date
Minimum magnitude displayed is 2.5.

Coastal Water Temperatures

Place Temperature

Stations

Nearby Weather Stations

Station Location Temp. Windchill Dew Point Humidity Wind Precip. Elev Updated Type